Latest Weather Observations for Walungurru (Kintore)

IDD60801

Issued at 11:31 pm CST Sunday 17 February 2019 (issued every 10 minutes, with the page automatically refreshed every 10 minutes)

About weather observations | Map of weather stations | Latest weather observations for NT | Other Formats
Station Details ID: 015664 Name: WALUNGURRU AIRPORT Lat: -23.27 Lon: 129.38 Height: 454.3 m
Data from the previous 72 hours. | See also: Recent months at Walungurru (Kintore)
Date/Time
CST
Temp
°C
App
Temp
°C
Dew
Point
°C
Rel
Hum
%
Delta-T
°C
Wind Press
QNH
hPa
Press
MSL
hPa
Rain since
9am
mm
Dir  Spd
km/h
Gust
km/h
Spd
kts
Gust
kts
17/11:30pm 31.9 26.5 -4.9 9 16.8 SSE 15 20 8 11 1010.3 - 0.0
17/11:00pm 32.4 27.4 -4.5 9 17.0 SE 13 20 7 11 1010.4 - 0.0
17/10:30pm 32.3 27.3 -4.6 9 16.9 SSE 13 17 7 9 1010.4 - 0.0
17/10:00pm 32.4 27.4 -4.5 9 17.0 SSE 13 15 7 8 1010.2 - 0.0
17/09:30pm 34.0 28.6 -4.9 8 18.0 S 15 20 8 11 1009.8 - 0.0
17/09:00pm 35.3 30.0 -3.9 8 18.6 SE 15 19 8 10 1009.6 1006.1 0.0
17/08:30pm 36.0 30.1 -5.2 7 19.2 SE 17 20 9 11 1009.1 - 0.0
17/08:00pm 36.7 30.9 -4.7 7 19.6 SE 17 20 9 11 1008.8 - 0.0
17/07:30pm 37.5 32.1 -4.1 7 20.0 SE 15 20 8 11 1008.4 - 0.0
17/07:00pm 38.8 32.0 -5.2 6 20.9 SSE 22 30 12 16 1008.0 - 0.0
17/06:30pm 39.5 32.4 -4.7 6 21.3 SE 24 32 13 17 1007.8 - 0.0
17/06:00pm 40.2 33.6 -6.6 5 22.1 SE 20 30 11 16 1007.7 1004.2 0.0
17/05:30pm 40.7 34.4 -6.3 5 22.3 SSE 19 30 10 16 1007.9 - 0.0
17/05:00pm 40.4 34.8 -6.5 5 22.1 SE 15 24 8 13 1008.1 - 0.0
17/04:30pm 40.6 34.6 -6.3 5 22.2 ESE 17 26 9 14 1008.4 - 0.0
17/04:00pm 39.9 33.5 -6.8 5 21.9 SSE 19 28 10 15 1008.6 - 0.0
17/03:30pm 40.3 34.7 -6.5 5 22.1 WSW 15 20 8 11 1008.9 - 0.0
17/03:00pm 40.7 34.7 -6.3 5 22.3 E 17 26 9 14 1009.3 1005.9 0.0
17/02:30pm 39.7 33.7 -6.9 5 21.8 SE 17 24 9 13 1009.8 - 0.0
17/02:00pm 38.7 34.1 -7.6 5 21.2 NW 9 17 5 9 1010.0 - 0.0
17/01:30pm 38.8 33.5 -7.6 5 21.3 N 13 19 7 10 1010.4 - 0.0
17/01:00pm 38.7 33.0 -7.6 5 21.2 ENE 15 30 8 16 1010.9 - 0.0
17/12:30pm 38.2 33.2 -8.0 5 21.0 N 11 30 6 16 1011.3 - 0.0
17/12:00pm 37.5 30.8 -8.5 5 20.6 NE 20 30 11 16 1011.7 1008.3 0.0
17/11:30am 37.6 30.1 -8.4 5 20.7 NE 24 33 13 18 1012.1 - 0.0
17/11:00am 37.2 28.5 -8.7 5 20.5 NNE 30 37 16 20 1012.4 - 0.0
17/10:30am 36.3 27.6 -9.3 5 20.0 NE 30 39 16 21 1012.5 - 0.0
17/10:00am 35.3 26.5 -10.0 5 19.5 NE 30 37 16 20 1013.1 - 0.0
17/09:30am 34.1 25.8 -8.5 6 18.6 ENE 28 35 15 19 1013.1 - 0.0
17/09:00am 32.2 24.0 -7.9 7 17.4 ENE 28 35 15 19 1013.1 1009.7 0.0
17/08:30am 30.3 22.4 -9.3 7 16.5 ENE 26 39 14 21 1012.9 - 0.0
17/08:00am 29.0 20.7 -8.5 8 15.7 ENE 28 35 15 19 1012.8 - 0.0
17/07:30am 27.3 20.2 -8.3 9 14.7 ENE 22 30 12 16 1012.6 - 0.0
17/07:00am 26.2 19.0 -9.1 9 14.2 ENE 22 28 12 15 1012.4 - 0.0
17/06:30am 26.7 18.8 -8.8 9 14.4 ENE 26 32 14 17 1012.2 - 0.0
17/06:00am 27.5 19.5 -9.7 8 15.0 ENE 26 35 14 19 1012.1 1008.6 0.0
17/05:30am 27.8 20.2 -9.4 8 15.1 ENE 24 32 13 17 1012.0 - 0.0
17/05:00am 28.2 20.3 -9.1 8 15.3 ENE 26 33 14 18 1012.0 - 0.0
17/04:30am 29.1 21.6 -8.5 8 15.7 ENE 24 33 13 18 1011.9 - 0.0
17/04:00am 29.6 22.0 -9.8 7 16.2 E 24 32 13 17 1011.6 - 0.0
17/03:30am 30.3 22.4 -9.3 7 16.5 E 26 39 14 21 1011.4 - 0.0
17/03:00am 30.9 23.0 -8.9 7 16.8 E 26 32 14 17 1011.5 1008.1 0.0
17/02:30am 31.6 23.7 -8.4 7 17.1 E 26 35 14 19 1011.5 - 0.0
17/02:00am 32.3 24.5 -7.8 7 17.4 E 26 35 14 19 1011.7 - 0.0
17/01:30am 33.2 25.8 -7.2 7 17.9 E 24 35 13 19 1012.1 - 0.0
17/01:00am 33.1 25.3 -7.3 7 17.8 ESE 26 37 14 20 1012.7 - 0.0
17/12:30am 33.2 26.4 -5.5 8 17.6 ESE 22 32 12 17 1013.1 - 0.0
17/12:00am 33.2 26.4 -5.5 8 17.6 ESE 22 32 12 17 1013.2 1009.8 0.0
 
Date/Time
CST
Temp
°C
App
Temp
°C
Dew
Point
°C
Rel
Hum
%
Delta-T
°C
Wind Press
QNH
hPa
Press
MSL
hPa
Rain since
9am
mm
Dir  Spd
km/h
Gust
km/h
Spd
kts
Gust
kts
16/11:30pm 33.3 26.1 -5.4 8 17.7 ESE 24 32 13 17 1013.2 - 0.0
16/11:00pm 33.5 26.3 -5.2 8 17.7 SE 24 32 13 17 1013.1 - 0.0
16/10:30pm 33.4 27.0 -5.3 8 17.7 SE 20 28 11 15 1013.1 - 0.0
16/10:00pm 33.8 26.6 -5.0 8 17.9 SE 24 32 13 17 1012.9 - 0.0
16/09:30pm 33.8 27.4 -5.0 8 17.9 SE 20 30 11 16 1012.5 - 0.0
16/09:00pm 34.0 28.6 -4.9 8 18.0 SE 15 20 8 11 1012.2 1008.7 0.0
16/08:30pm 34.9 29.5 -4.2 8 18.4 SE 15 19 8 10 1011.6 - 0.0
16/08:00pm 35.3 29.8 -5.7 7 18.9 SE 15 19 8 10 1011.3 - 0.0
16/07:30pm 36.2 31.1 -5.0 7 19.3 SE 13 17 7 9 1011.0 - 0.0
16/07:00pm 37.4 32.6 -6.2 6 20.2 SSE 11 17 6 9 1011.0 - 0.0
16/06:30pm 37.9 32.4 -5.8 6 20.5 S 15 20 8 11 1010.9 - 0.0
16/06:00pm 38.2 32.3 -5.6 6 20.7 S 17 22 9 12 1010.8 1007.4 0.0
16/05:30pm 38.2 32.3 -5.6 6 20.6 S 17 26 9 14 1010.9 - 0.0
16/05:00pm 39.0 32.5 -7.4 5 21.4 ESE 19 26 10 14 1011.1 - 0.0
16/04:30pm 38.9 33.8 -5.1 6 21.0 ESE 13 26 7 14 1011.4 - 0.0
16/04:00pm 38.4 32.3 -7.8 5 21.1 SSW 17 28 9 15 1011.9 - 0.0
16/03:30pm 38.2 32.5 -8.0 5 21.0 SSW 15 32 8 17 1012.2 - 0.0
16/03:00pm 38.1 32.7 -8.1 5 20.9 SE 13 20 7 11 1012.8 1009.4 0.0
16/02:30pm 38.1 33.3 -5.7 6 20.6 SSE 11 20 6 11 1013.1 - 0.0
16/02:00pm 37.0 30.4 -8.8 5 20.3 ENE 19 28 10 15 1013.6 - 0.0
16/01:30pm 37.4 32.6 -6.2 6 20.2 ESE 11 22 6 12 1014.3 - 0.0
16/01:00pm 36.6 31.7 -6.8 6 19.8 SSW 11 17 6 9 1014.7 - 0.0
16/12:30pm 36.8 30.4 -6.6 6 19.9 ESE 19 30 10 16 1015.3 - 0.0
16/12:00pm 36.1 30.4 -7.1 6 19.6 E 15 30 8 16 1015.7 1012.3 0.0
16/11:30am 35.5 29.2 -5.5 7 19.0 E 19 32 10 17 1016.2 - 0.0
16/11:00am 34.5 27.6 -6.3 7 18.5 ENE 22 32 12 17 1016.7 - 0.0
16/10:30am 33.2 25.8 -7.2 7 17.9 ENE 24 33 13 18 1017.1 - 0.0
16/10:00am 32.4 25.1 -6.0 8 17.2 ENE 24 33 13 18 1017.2 - 0.0
16/09:30am 31.2 23.1 -6.9 8 16.7 NE 28 37 15 20 1017.2 - 0.0
16/09:00am 29.5 21.4 -6.7 9 15.6 ENE 28 37 15 20 1017.1 1013.7 0.0
16/08:30am 28.5 20.1 -6.0 10 15.0 ENE 30 37 16 20 1017.1 - 0.0
16/08:00am 27.1 18.6 -7.1 10 14.4 ENE 30 39 16 21 1016.9 - 0.0
16/07:30am 26.5 18.8 -6.3 11 13.9 ENE 26 35 14 19 1016.6 - 0.0
16/07:00am 25.9 18.6 -6.8 11 13.7 E 24 33 13 18 1016.1 - 0.0
16/06:30am 25.7 18.0 -6.9 11 13.6 E 26 32 14 17 1015.8 - 0.0
16/06:00am 26.2 18.1 -6.5 11 13.8 E 28 35 15 19 1015.4 1012.0 0.0
16/05:30am 26.8 19.1 -6.1 11 14.1 E 26 37 14 20 1015.2 - 0.0
16/05:00am 27.0 19.2 -7.2 10 14.3 E 26 33 14 18 1014.9 - 0.0
16/04:30am 27.6 20.3 -6.7 10 14.6 E 24 32 13 17 1014.7 - 0.0
16/04:00am 27.8 20.5 -6.6 10 14.7 E 24 32 13 17 1014.6 - 0.0
16/03:30am 28.1 21.2 -6.3 10 14.8 E 22 30 12 16 1014.5 - 0.0
16/03:00am 28.3 21.4 -6.2 10 14.9 E 22 28 12 15 1014.8 1011.4 0.0
16/02:30am 28.5 21.5 -7.4 9 15.2 ENE 22 28 12 15 1014.8 - 0.0
16/02:00am 29.2 22.2 -6.9 9 15.5 ENE 22 32 12 17 1014.9 - 0.0
16/01:00am 30.8 22.7 -7.2 8 16.5 E 28 41 15 22 1015.1 - 0.0
16/12:30am 32.1 23.9 -8.0 7 17.3 E 28 37 15 20 1015.4 - 0.0
16/12:00am 32.7 23.8 -7.6 7 17.6 ESE 32 46 17 25 1015.6 1012.2 0.0
 
Date/Time
CST
Temp
°C
App
Temp
°C
Dew
Point
°C
Rel
Hum
%
Delta-T
°C
Wind Press
QNH
hPa
Press
MSL
hPa
Rain since
9am
mm
Dir  Spd
km/h
Gust
km/h
Spd
kts
Gust
kts
15/11:30pm 32.9 24.4 -7.4 7 17.7 ESE 30 41 16 22 1015.7 - 0.0
15/11:00pm 32.9 24.5 -5.7 8 17.5 ESE 30 41 16 22 1015.7 - 0.0
15/10:30pm 32.7 24.7 -5.8 8 17.4 ESE 28 41 15 22 1015.7 - 0.0
15/10:00pm 32.7 25.1 -5.8 8 17.4 SE 26 32 14 17 1015.8 - 0.0
15/09:30pm 32.8 25.9 -5.7 8 17.4 SE 22 30 12 16 1015.7 - 0.0
15/09:00pm 33.4 26.8 -7.0 7 18.0 SE 20 28 11 15 1015.4 1012.0 0.0
15/08:30pm 33.7 27.7 -6.8 7 18.1 SE 17 22 9 12 1015.0 - 0.0
15/08:00pm 34.8 28.7 -8.0 6 18.9 SE 17 22 9 12 1014.5 - 0.0
15/07:30pm 36.1 29.5 -7.1 6 19.6 SSE 20 28 11 15 1013.9 - 0.0
15/07:00pm 37.5 29.8 -6.1 6 20.3 SSE 26 35 14 19 1013.2 - 0.0
15/06:30pm 38.2 31.5 -8.0 5 21.0 S 20 32 11 17 1012.9 - 0.0
15/06:00pm 38.5 31.4 -7.8 5 21.1 S 22 30 12 16 1012.7 1009.3 0.0
15/05:30pm 39.3 33.9 -4.8 6 21.2 S 15 26 8 14 1012.8 - 0.0
15/05:00pm 39.1 33.6 -5.0 6 21.1 SSE 15 26 8 14 1012.9 - 0.0
15/04:30pm 38.5 33.0 -5.4 6 20.8 S 15 24 8 13 1013.0 - 0.0
15/04:00pm 38.6 31.8 -5.3 6 20.8 S 22 32 12 17 1013.2 - 0.0
15/03:30pm 37.8 32.5 -3.9 7 20.1 SSE 15 24 8 13 1013.5 - 0.0
15/03:00pm 37.9 33.0 -3.8 7 20.2 S 13 24 7 13 1014.0 1010.6 0.0
15/02:30pm 37.4 32.2 -2.4 8 19.6 ESE 15 28 8 15 1014.3 - 0.0
15/02:00pm 38.3 33.2 -1.7 8 20.0 ESE 15 22 8 12 1014.9 - 0.0
15/01:30pm 37.8 33.1 -2.1 8 19.8 ESE 13 20 7 11 1015.3 - 0.0
15/01:00pm 36.4 32.1 -1.5 9 18.8 E 11 20 6 11 1015.7 - 0.0
15/12:30pm 36.9 32.3 -1.1 9 19.0 ENE 13 26 7 14 1016.3 - 0.0
15/12:00pm 36.5 31.1 -1.4 9 18.8 ENE 17 28 9 15 1016.8 1013.4 0.0
15/11:30am 36.3 30.9 -1.6 9 18.8 ENE 17 30 9 16 1017.4 - 0.0
15/04:00am 27.9 19.4 -3.0 13 14.1 E 32 44 17 24 1014.0 - 0.0
15/03:30am 27.9 19.4 -3.0 13 14.1 E 32 41 17 22 1014.0 - 0.0
15/03:00am 28.4 20.0 -2.6 13 14.3 ESE 32 41 17 22 1014.2 1010.7 0.0
15/02:30am 28.5 20.8 -2.6 13 14.3 ESE 28 39 15 21 1014.4 - 0.0
15/02:00am 28.5 21.6 -2.6 13 14.3 SE 24 33 13 18 1014.6 - 0.0
15/01:30am 29.6 21.7 -1.7 13 14.8 ESE 30 48 16 26 1014.5 - 0.0
15/01:24am 29.7 21.8 -1.6 13 14.8 ESE 30 48 16 26 1014.6 - 0.0
15/01:00am 29.1 22.3 -2.1 13 14.6 SE 24 39 13 21 1014.7 - 0.0
15/12:30am 29.7 22.6 -1.6 13 14.8 SE 26 32 14 17 1014.6 - 0.0
15/12:00am 30.1 23.0 -1.3 13 15.0 SE 26 39 14 21 1014.5 1011.1 0.0

Other Formats:

Comma delimited format used in spreadsheet applications
http://www.bom.gov.au/fwo/IDD60801/IDD60801.94321.axf

JavaScript Object Notation format (JSON) in row-major order
http://www.bom.gov.au/fwo/IDD60801/IDD60801.94321.json